sensor_id;sensor_type;location;lat;lon;timestamp;temperature;humidity
19586;DHT22;9939;49.246;9.106;2023-06-14T00:01:03;15.50;99.90
19586;DHT22;9939;49.246;9.106;2023-06-14T00:03:32;15.50;99.90
19586;DHT22;9939;49.246;9.106;2023-06-14T00:05:59;15.40;99.90
19586;DHT22;9939;49.246;9.106;2023-06-14T00:08:26;15.40;99.90
19586;DHT22;9939;49.246;9.106;2023-06-14T00:10:53;15.30;99.90
19586;DHT22;9939;49.246;9.106;2023-06-14T00:13:20;15.30;99.90
19586;DHT22;9939;49.246;9.106;2023-06-14T00:15:47;15.20;99.90
19586;DHT22;9939;49.246;9.106;2023-06-14T00:18:14;15.20;99.90
19586;DHT22;9939;49.246;9.106;2023-06-14T00:20:41;15.20;99.90
19586;DHT22;9939;49.246;9.106;2023-06-14T00:23:09;15.10;99.90
19586;DHT22;9939;49.246;9.106;2023-06-14T00:25:36;15.20;99.90
19586;DHT22;9939;49.246;9.106;2023-06-14T00:28:04;15.10;99.90
19586;DHT22;9939;49.246;9.106;2023-06-14T00:30:31;15.20;99.90
19586;DHT22;9939;49.246;9.106;2023-06-14T00:32:58;15.10;99.90
19586;DHT22;9939;49.246;9.106;2023-06-14T00:35:25;15.10;99.90
19586;DHT22;9939;49.246;9.106;2023-06-14T00:37:52;15.10;99.90
19586;DHT22;9939;49.246;9.106;2023-06-14T00:40:21;15.10;99.90
19586;DHT22;9939;49.246;9.106;2023-06-14T00:42:48;15.10;99.90
19586;DHT22;9939;49.246;9.106;2023-06-14T00:45:15;15.10;99.90
19586;DHT22;9939;49.246;9.106;2023-06-14T00:47:43;15.10;99.90
19586;DHT22;9939;49.246;9.106;2023-06-14T00:50:10;15.10;99.90
19586;DHT22;9939;49.246;9.106;2023-06-14T00:52:38;15.10;99.90
19586;DHT22;9939;49.246;9.106;2023-06-14T00:55:05;15.00;99.90
19586;DHT22;9939;49.246;9.106;2023-06-14T00:57:32;14.90;99.90
19586;DHT22;9939;49.246;9.106;2023-06-14T00:59:59;14.80;99.90
19586;DHT22;9939;49.246;9.106;2023-06-14T01:02:26;14.80;99.90
19586;DHT22;9939;49.246;9.106;2023-06-14T01:04:53;14.80;99.90
19586;DHT22;9939;49.246;9.106;2023-06-14T01:12:39;14.80;99.90
19586;DHT22;9939;49.246;9.106;2023-06-14T01:15:16;14.70;99.90
19586;DHT22;9939;49.246;9.106;2023-06-14T01:17:44;14.70;99.90
19586;DHT22;9939;49.246;9.106;2023-06-14T01:20:13;14.60;99.90
19586;DHT22;9939;49.246;9.106;2023-06-14T01:22:50;14.60;99.90
19586;DHT22;9939;49.246;9.106;2023-06-14T01:25:17;14.60;99.90
19586;DHT22;9939;49.246;9.106;2023-06-14T01:27:58;14.50;99.90
19586;DHT22;9939;49.246;9.106;2023-06-14T01:30:26;14.60;99.90
19586;DHT22;9939;49.246;9.106;2023-06-14T01:32:54;14.50;99.90
19586;DHT22;9939;49.246;9.106;2023-06-14T01:35:21;14.60;99.90
19586;DHT22;9939;49.246;9.106;2023-06-14T01:37:49;14.50;99.90
19586;DHT22;9939;49.246;9.106;2023-06-14T01:40:18;14.50;99.90
19586;DHT22;9939;49.246;9.106;2023-06-14T01:42:46;14.50;99.90
19586;DHT22;9939;49.246;9.106;2023-06-14T01:45:13;14.50;99.90
19586;DHT22;9939;49.246;9.106;2023-06-14T01:47:40;14.40;99.90
19586;DHT22;9939;49.246;9.106;2023-06-14T01:50:08;14.30;99.90
19586;DHT22;9939;49.246;9.106;2023-06-14T01:52:36;14.40;99.90
19586;DHT22;9939;49.246;9.106;2023-06-14T01:55:04;14.40;99.90
19586;DHT22;9939;49.246;9.106;2023-06-14T01:57:31;14.30;99.90
19586;DHT22;9939;49.246;9.106;2023-06-14T01:59:59;14.40;99.90
19586;DHT22;9939;49.246;9.106;2023-06-14T02:02:25;14.30;99.90
19586;DHT22;9939;49.246;9.106;2023-06-14T02:04:52;14.40;99.90
19586;DHT22;9939;49.246;9.106;2023-06-14T02:07:24;14.30;99.90
19586;DHT22;9939;49.246;9.106;2023-06-14T02:09:51;14.30;99.90
19586;DHT22;9939;49.246;9.106;2023-06-14T02:12:21;14.40;99.90
19586;DHT22;9939;49.246;9.106;2023-06-14T02:14:48;14.60;99.90
19586;DHT22;9939;49.246;9.106;2023-06-14T02:17:16;14.50;99.90
19586;DHT22;9939;49.246;9.106;2023-06-14T02:19:43;14.50;99.90
19586;DHT22;9939;49.246;9.106;2023-06-14T02:22:10;14.40;99.90
19586;DHT22;9939;49.246;9.106;2023-06-14T02:24:38;14.50;99.90
19586;DHT22;9939;49.246;9.106;2023-06-14T02:27:07;14.60;99.90
19586;DHT22;9939;49.246;9.106;2023-06-14T02:29:36;14.60;99.90
19586;DHT22;9939;49.246;9.106;2023-06-14T02:32:06;14.80;99.90
19586;DHT22;9939;49.246;9.106;2023-06-14T02:34:38;14.90;99.90
19586;DHT22;9939;49.246;9.106;2023-06-14T02:37:07;14.90;99.90
19586;DHT22;9939;49.246;9.106;2023-06-14T02:39:34;14.90;99.90
19586;DHT22;9939;49.246;9.106;2023-06-14T02:42:03;15.00;99.90
19586;DHT22;9939;49.246;9.106;2023-06-14T02:44:30;14.90;99.90
19586;DHT22;9939;49.246;9.106;2023-06-14T02:46:59;14.90;99.90
19586;DHT22;9939;49.246;9.106;2023-06-14T02:49:27;15.00;99.90
19586;DHT22;9939;49.246;9.106;2023-06-14T02:51:54;14.90;99.90
19586;DHT22;9939;49.246;9.106;2023-06-14T02:54:21;15.00;99.90
19586;DHT22;9939;49.246;9.106;2023-06-14T02:56:48;14.90;99.90
19586;DHT22;9939;49.246;9.106;2023-06-14T02:59:16;14.80;99.90
19586;DHT22;9939;49.246;9.106;2023-06-14T03:01:43;14.60;99.90
19586;DHT22;9939;49.246;9.106;2023-06-14T03:04:13;14.50;99.90
19586;DHT22;9939;49.246;9.106;2023-06-14T03:06:42;14.50;99.90
19586;DHT22;9939;49.246;9.106;2023-06-14T03:09:12;14.50;99.90
19586;DHT22;9939;49.246;9.106;2023-06-14T03:11:40;14.50;99.90
19586;DHT22;9939;49.246;9.106;2023-06-14T03:14:07;14.50;99.90
19586;DHT22;9939;49.246;9.106;2023-06-14T03:16:36;14.40;99.90
19586;DHT22;9939;49.246;9.106;2023-06-14T03:19:04;14.40;99.90
19586;DHT22;9939;49.246;9.106;2023-06-14T03:21:32;14.30;99.90
19586;DHT22;9939;49.246;9.106;2023-06-14T03:24:02;14.30;99.90
19586;DHT22;9939;49.246;9.106;2023-06-14T03:26:31;14.20;99.90
19586;DHT22;9939;49.246;9.106;2023-06-14T03:29:01;14.40;99.90
19586;DHT22;9939;49.246;9.106;2023-06-14T03:31:29;14.30;99.90
19586;DHT22;9939;49.246;9.106;2023-06-14T03:34:01;14.30;99.90
19586;DHT22;9939;49.246;9.106;2023-06-14T03:36:29;14.30;99.90
19586;DHT22;9939;49.246;9.106;2023-06-14T03:38:56;14.30;99.90
19586;DHT22;9939;49.246;9.106;2023-06-14T03:41:23;14.40;99.90
19586;DHT22;9939;49.246;9.106;2023-06-14T03:43:50;14.60;99.90
19586;DHT22;9939;49.246;9.106;2023-06-14T03:46:17;14.60;99.90
19586;DHT22;9939;49.246;9.106;2023-06-14T03:48:44;14.70;99.90
19586;DHT22;9939;49.246;9.106;2023-06-14T03:51:12;14.60;99.90
19586;DHT22;9939;49.246;9.106;2023-06-14T03:53:39;14.70;99.90
19586;DHT22;9939;49.246;9.106;2023-06-14T03:56:25;14.70;99.90
19586;DHT22;9939;49.246;9.106;2023-06-14T03:58:53;14.90;99.90
19586;DHT22;9939;49.246;9.106;2023-06-14T04:01:23;15.00;99.90
19586;DHT22;9939;49.246;9.106;2023-06-14T04:03:58;15.00;99.90
19586;DHT22;9939;49.246;9.106;2023-06-14T04:06:25;14.90;99.90
19586;DHT22;9939;49.246;9.106;2023-06-14T04:08:59;15.00;99.90
19586;DHT22;9939;49.246;9.106;2023-06-14T04:11:30;15.10;99.90
19586;DHT22;9939;49.246;9.106;2023-06-14T04:13:58;15.20;99.90
19586;DHT22;9939;49.246;9.106;2023-06-14T04:16:26;15.30;99.90
19586;DHT22;9939;49.246;9.106;2023-06-14T04:18:54;15.30;99.90
19586;DHT22;9939;49.246;9.106;2023-06-14T04:21:22;15.30;99.90
19586;DHT22;9939;49.246;9.106;2023-06-14T04:23:52;15.30;99.90
19586;DHT22;9939;49.246;9.106;2023-06-14T04:26:23;15.30;99.90
19586;DHT22;9939;49.246;9.106;2023-06-14T04:28:57;15.40;99.90
19586;DHT22;9939;49.246;9.106;2023-06-14T04:31:32;15.40;99.90
19586;DHT22;9939;49.246;9.106;2023-06-14T04:34:08;15.60;99.90
19586;DHT22;9939;49.246;9.106;2023-06-14T04:36:36;15.70;99.90
19586;DHT22;9939;49.246;9.106;2023-06-14T04:39:08;15.70;99.90
19586;DHT22;9939;49.246;9.106;2023-06-14T04:41:35;15.70;99.90
19586;DHT22;9939;49.246;9.106;2023-06-14T04:44:03;15.70;99.90
19586;DHT22;9939;49.246;9.106;2023-06-14T04:46:36;15.80;99.90
19586;DHT22;9939;49.246;9.106;2023-06-14T04:49:22;15.90;99.90
19586;DHT22;9939;49.246;9.106;2023-06-14T04:51:53;15.90;99.90
19586;DHT22;9939;49.246;9.106;2023-06-14T04:54:34;16.00;99.90
19586;DHT22;9939;49.246;9.106;2023-06-14T04:57:07;16.10;99.90
19586;DHT22;9939;49.246;9.106;2023-06-14T04:59:35;16.00;99.90
19586;DHT22;9939;49.246;9.106;2023-06-14T05:02:02;16.10;99.90
19586;DHT22;9939;49.246;9.106;2023-06-14T05:04:29;16.30;99.90
19586;DHT22;9939;49.246;9.106;2023-06-14T05:06:58;16.30;99.90
19586;DHT22;9939;49.246;9.106;2023-06-14T05:09:25;16.30;99.90
19586;DHT22;9939;49.246;9.106;2023-06-14T05:11:52;16.40;99.90
19586;DHT22;9939;49.246;9.106;2023-06-14T05:14:20;16.50;99.90
19586;DHT22;9939;49.246;9.106;2023-06-14T05:16:50;16.50;99.90
19586;DHT22;9939;49.246;9.106;2023-06-14T05:19:17;16.60;99.90
19586;DHT22;9939;49.246;9.106;2023-06-14T05:21:45;16.60;99.90
19586;DHT22;9939;49.246;9.106;2023-06-14T05:24:13;16.70;99.90
19586;DHT22;9939;49.246;9.106;2023-06-14T05:26:40;16.80;99.90
19586;DHT22;9939;49.246;9.106;2023-06-14T05:29:07;16.90;99.90
19586;DHT22;9939;49.246;9.106;2023-06-14T05:31:34;17.00;99.90
19586;DHT22;9939;49.246;9.106;2023-06-14T05:34:01;17.10;99.90
19586;DHT22;9939;49.246;9.106;2023-06-14T05:36:28;17.30;99.90
19586;DHT22;9939;49.246;9.106;2023-06-14T05:38:55;17.30;99.90
19586;DHT22;9939;49.246;9.106;2023-06-14T05:41:28;17.40;99.90
19586;DHT22;9939;49.246;9.106;2023-06-14T05:43:55;17.50;99.90
19586;DHT22;9939;49.246;9.106;2023-06-14T05:46:22;17.70;99.90
19586;DHT22;9939;49.246;9.106;2023-06-14T05:48:52;17.80;99.90
19586;DHT22;9939;49.246;9.106;2023-06-14T05:51:19;17.90;99.90
19586;DHT22;9939;49.246;9.106;2023-06-14T05:53:47;18.20;99.90
19586;DHT22;9939;49.246;9.106;2023-06-14T05:56:14;18.20;99.90
19586;DHT22;9939;49.246;9.106;2023-06-14T05:58:41;18.30;99.90
19586;DHT22;9939;49.246;9.106;2023-06-14T06:01:08;18.40;99.90
19586;DHT22;9939;49.246;9.106;2023-06-14T06:03:35;18.40;99.90
19586;DHT22;9939;49.246;9.106;2023-06-14T06:06:02;18.30;99.90
19586;DHT22;9939;49.246;9.106;2023-06-14T06:08:29;18.40;99.90
19586;DHT22;9939;49.246;9.106;2023-06-14T06:10:57;18.30;99.90
19586;DHT22;9939;49.246;9.106;2023-06-14T06:13:25;18.60;99.90
19586;DHT22;9939;49.246;9.106;2023-06-14T06:15:51;18.70;99.90
19586;DHT22;9939;49.246;9.106;2023-06-14T06:18:18;18.90;99.90
19586;DHT22;9939;49.246;9.106;2023-06-14T06:20:45;19.10;99.90
19586;DHT22;9939;49.246;9.106;2023-06-14T06:23:13;19.10;99.90
19586;DHT22;9939;49.246;9.106;2023-06-14T06:25:40;19.20;99.90
19586;DHT22;9939;49.246;9.106;2023-06-14T06:28:08;19.10;99.90
19586;DHT22;9939;49.246;9.106;2023-06-14T06:30:35;19.20;99.90
19586;DHT22;9939;49.246;9.106;2023-06-14T06:33:03;19.10;99.90
19586;DHT22;9939;49.246;9.106;2023-06-14T06:35:30;19.20;99.90
19586;DHT22;9939;49.246;9.106;2023-06-14T06:37:59;19.20;99.90
19586;DHT22;9939;49.246;9.106;2023-06-14T06:40:27;19.40;99.90
19586;DHT22;9939;49.246;9.106;2023-06-14T06:42:54;19.60;99.90
19586;DHT22;9939;49.246;9.106;2023-06-14T06:45:25;19.80;99.90
19586;DHT22;9939;49.246;9.106;2023-06-14T06:47:52;19.70;99.90
19586;DHT22;9939;49.246;9.106;2023-06-14T06:50:19;19.70;99.90
19586;DHT22;9939;49.246;9.106;2023-06-14T06:52:52;19.70;99.90
19586;DHT22;9939;49.246;9.106;2023-06-14T06:55:20;19.90;99.90
19586;DHT22;9939;49.246;9.106;2023-06-14T06:57:47;20.20;99.90
19586;DHT22;9939;49.246;9.106;2023-06-14T07:00:16;20.10;99.90
19586;DHT22;9939;49.246;9.106;2023-06-14T07:02:45;19.90;99.90
19586;DHT22;9939;49.246;9.106;2023-06-14T07:05:12;20.00;99.90
19586;DHT22;9939;49.246;9.106;2023-06-14T07:07:39;20.10;99.90
19586;DHT22;9939;49.246;9.106;2023-06-14T07:10:06;20.20;99.90
19586;DHT22;9939;49.246;9.106;2023-06-14T07:12:34;20.60;99.90
19586;DHT22;9939;49.246;9.106;2023-06-14T07:15:08;20.70;99.90
19586;DHT22;9939;49.246;9.106;2023-06-14T07:17:36;20.90;99.90
19586;DHT22;9939;49.246;9.106;2023-06-14T07:20:04;20.90;99.90
19586;DHT22;9939;49.246;9.106;2023-06-14T07:22:41;20.90;99.90
19586;DHT22;9939;49.246;9.106;2023-06-14T07:25:09;21.10;99.90
19586;DHT22;9939;49.246;9.106;2023-06-14T07:27:39;21.10;99.90
19586;DHT22;9939;49.246;9.106;2023-06-14T07:30:07;21.20;99.90
19586;DHT22;9939;49.246;9.106;2023-06-14T07:32:35;21.30;99.90
19586;DHT22;9939;49.246;9.106;2023-06-14T07:35:02;21.20;99.90
19586;DHT22;9939;49.246;9.106;2023-06-14T07:37:29;21.40;99.90
19586;DHT22;9939;49.246;9.106;2023-06-14T07:39:57;21.50;99.90
19586;DHT22;9939;49.246;9.106;2023-06-14T07:42:24;21.50;99.90
19586;DHT22;9939;49.246;9.106;2023-06-14T07:44:51;21.70;99.90
19586;DHT22;9939;49.246;9.106;2023-06-14T07:47:19;21.70;99.90
19586;DHT22;9939;49.246;9.106;2023-06-14T07:49:46;21.70;99.90
19586;DHT22;9939;49.246;9.106;2023-06-14T07:52:13;21.70;99.90
19586;DHT22;9939;49.246;9.106;2023-06-14T07:54:40;21.90;99.90
19586;DHT22;9939;49.246;9.106;2023-06-14T07:57:07;21.90;99.90
19586;DHT22;9939;49.246;9.106;2023-06-14T07:59:35;21.90;99.90
19586;DHT22;9939;49.246;9.106;2023-06-14T08:02:02;22.20;99.90
19586;DHT22;9939;49.246;9.106;2023-06-14T08:04:29;22.10;99.90
19586;DHT22;9939;49.246;9.106;2023-06-14T08:06:58;21.90;99.90
19586;DHT22;9939;49.246;9.106;2023-06-14T08:09:25;21.90;99.90
19586;DHT22;9939;49.246;9.106;2023-06-14T08:11:52;22.20;99.90
19586;DHT22;9939;49.246;9.106;2023-06-14T08:14:18;22.10;99.90
19586;DHT22;9939;49.246;9.106;2023-06-14T08:16:46;21.80;99.90
19586;DHT22;9939;49.246;9.106;2023-06-14T08:19:13;22.10;99.90
19586;DHT22;9939;49.246;9.106;2023-06-14T08:21:40;22.40;99.90
19586;DHT22;9939;49.246;9.106;2023-06-14T08:24:06;22.40;99.90
19586;DHT22;9939;49.246;9.106;2023-06-14T08:26:34;22.50;99.90
19586;DHT22;9939;49.246;9.106;2023-06-14T08:29:00;22.50;99.90
19586;DHT22;9939;49.246;9.106;2023-06-14T08:31:27;22.70;99.90
19586;DHT22;9939;49.246;9.106;2023-06-14T08:33:54;23.00;99.90
19586;DHT22;9939;49.246;9.106;2023-06-14T08:36:21;23.00;99.90
19586;DHT22;9939;49.246;9.106;2023-06-14T08:38:49;23.10;99.90
19586;DHT22;9939;49.246;9.106;2023-06-14T08:41:22;23.40;99.90
19586;DHT22;9939;49.246;9.106;2023-06-14T08:43:52;23.70;99.90
19586;DHT22;9939;49.246;9.106;2023-06-14T08:46:19;23.80;99.90
19586;DHT22;9939;49.246;9.106;2023-06-14T08:48:47;24.00;99.90
19586;DHT22;9939;49.246;9.106;2023-06-14T08:51:17;23.80;99.90
19586;DHT22;9939;49.246;9.106;2023-06-14T08:53:45;23.90;99.90
19586;DHT22;9939;49.246;9.106;2023-06-14T08:56:13;23.50;99.90
19586;DHT22;9939;49.246;9.106;2023-06-14T08:58:42;23.30;99.90
19586;DHT22;9939;49.246;9.106;2023-06-14T09:01:11;23.90;99.90
19586;DHT22;9939;49.246;9.106;2023-06-14T09:03:43;24.30;99.90
19586;DHT22;9939;49.246;9.106;2023-06-14T09:06:11;24.50;99.90
19586;DHT22;9939;49.246;9.106;2023-06-14T09:08:41;24.70;99.90
19586;DHT22;9939;49.246;9.106;2023-06-14T09:11:10;24.80;99.90
19586;DHT22;9939;49.246;9.106;2023-06-14T09:13:37;24.90;98.80
19586;DHT22;9939;49.246;9.106;2023-06-14T09:16:05;25.10;98.20
19586;DHT22;9939;49.246;9.106;2023-06-14T09:18:39;25.00;97.60
19586;DHT22;9939;49.246;9.106;2023-06-14T09:21:08;25.10;98.80
19586;DHT22;9939;49.246;9.106;2023-06-14T09:23:39;25.10;97.50
19586;DHT22;9939;49.246;9.106;2023-06-14T09:26:16;25.70;96.90
19586;DHT22;9939;49.246;9.106;2023-06-14T09:28:44;26.00;97.30
19586;DHT22;9939;49.246;9.106;2023-06-14T09:31:11;26.50;95.90
19586;DHT22;9939;49.246;9.106;2023-06-14T09:33:38;27.50;95.70
19586;DHT22;9939;49.246;9.106;2023-06-14T09:36:11;27.60;94.00
19586;DHT22;9939;49.246;9.106;2023-06-14T09:38:40;27.60;94.00
19586;DHT22;9939;49.246;9.106;2023-06-14T09:41:07;28.70;93.80
19586;DHT22;9939;49.246;9.106;2023-06-14T09:43:34;28.50;92.70
19586;DHT22;9939;49.246;9.106;2023-06-14T09:46:01;28.50;93.10
19586;DHT22;9939;49.246;9.106;2023-06-14T09:48:27;28.30;92.70
19586;DHT22;9939;49.246;9.106;2023-06-14T09:50:55;28.10;91.10
19586;DHT22;9939;49.246;9.106;2023-06-14T09:53:22;28.20;91.90
19586;DHT22;9939;49.246;9.106;2023-06-14T09:55:50;28.80;92.00
19586;DHT22;9939;49.246;9.106;2023-06-14T09:58:19;29.70;91.00
19586;DHT22;9939;49.246;9.106;2023-06-14T10:00:46;28.50;90.90
19586;DHT22;9939;49.246;9.106;2023-06-14T10:03:16;27.90;91.60
19586;DHT22;9939;49.246;9.106;2023-06-14T10:05:46;27.60;91.60
19586;DHT22;9939;49.246;9.106;2023-06-14T10:08:15;26.90;92.20
19586;DHT22;9939;49.246;9.106;2023-06-14T10:10:43;26.30;93.60
19586;DHT22;9939;49.246;9.106;2023-06-14T10:13:11;26.70;93.10
19586;DHT22;9939;49.246;9.106;2023-06-14T10:18:19;27.60;90.90
19586;DHT22;9939;49.246;9.106;2023-06-14T10:23:45;30.70;85.70
19586;DHT22;9939;49.246;9.106;2023-06-14T10:26:20;30.10;82.30
19586;DHT22;9939;49.246;9.106;2023-06-14T10:29:00;29.70;83.80
19586;DHT22;9939;49.246;9.106;2023-06-14T10:31:41;28.90;85.50
19586;DHT22;9939;49.246;9.106;2023-06-14T10:34:09;28.60;86.90
19586;DHT22;9939;49.246;9.106;2023-06-14T10:36:37;28.20;88.40
19586;DHT22;9939;49.246;9.106;2023-06-14T10:39:11;27.90;88.10
19586;DHT22;9939;49.246;9.106;2023-06-14T10:41:38;29.00;86.00
19586;DHT22;9939;49.246;9.106;2023-06-14T10:46:39;31.90;81.10
19586;DHT22;9939;49.246;9.106;2023-06-14T10:49:08;32.00;80.40
19586;DHT22;9939;49.246;9.106;2023-06-14T10:51:41;30.30;79.70
19586;DHT22;9939;49.246;9.106;2023-06-14T10:54:14;30.50;80.70
19586;DHT22;9939;49.246;9.106;2023-06-14T10:56:47;31.80;79.30
19586;DHT22;9939;49.246;9.106;2023-06-14T10:59:18;30.90;80.50
19586;DHT22;9939;49.246;9.106;2023-06-14T11:04:12;29.30;83.10
19586;DHT22;9939;49.246;9.106;2023-06-14T11:06:47;29.20;82.40
19586;DHT22;9939;49.246;9.106;2023-06-14T11:12:03;28.20;84.40
19586;DHT22;9939;49.246;9.106;2023-06-14T11:14:30;27.80;85.70
19586;DHT22;9939;49.246;9.106;2023-06-14T11:16:57;27.20;87.10
19586;DHT22;9939;49.246;9.106;2023-06-14T11:19:25;26.80;86.60
19586;DHT22;9939;49.246;9.106;2023-06-14T11:21:55;27.00;89.00
19586;DHT22;9939;49.246;9.106;2023-06-14T11:24:22;28.30;84.70
19586;DHT22;9939;49.246;9.106;2023-06-14T11:26:49;30.20;80.00
19586;DHT22;9939;49.246;9.106;2023-06-14T11:29:16;29.60;79.60
19586;DHT22;9939;49.246;9.106;2023-06-14T11:31:44;30.30;80.60
19586;DHT22;9939;49.246;9.106;2023-06-14T11:34:12;30.10;80.30
19586;DHT22;9939;49.246;9.106;2023-06-14T11:36:39;31.90;78.00
19586;DHT22;9939;49.246;9.106;2023-06-14T11:39:07;31.20;79.50
19586;DHT22;9939;49.246;9.106;2023-06-14T11:44:04;32.60;77.70
19586;DHT22;9939;49.246;9.106;2023-06-14T11:46:32;34.50;75.90
19586;DHT22;9939;49.246;9.106;2023-06-14T11:48:59;34.60;72.80
19586;DHT22;9939;49.246;9.106;2023-06-14T11:51:30;34.20;71.90
19586;DHT22;9939;49.246;9.106;2023-06-14T11:53:58;33.80;73.20
19586;DHT22;9939;49.246;9.106;2023-06-14T11:56:25;34.60;70.80
19586;DHT22;9939;49.246;9.106;2023-06-14T11:58:53;35.80;70.60
19586;DHT22;9939;49.246;9.106;2023-06-14T12:01:23;33.80;71.00
19586;DHT22;9939;49.246;9.106;2023-06-14T12:03:50;33.80;71.40
19586;DHT22;9939;49.246;9.106;2023-06-14T12:06:25;32.10;75.00
19586;DHT22;9939;49.246;9.106;2023-06-14T12:08:58;32.20;76.20
19586;DHT22;9939;49.246;9.106;2023-06-14T12:11:28;30.60;77.00
19586;DHT22;9939;49.246;9.106;2023-06-14T12:13:56;29.80;78.00
19586;DHT22;9939;49.246;9.106;2023-06-14T12:16:29;29.60;78.80
19586;DHT22;9939;49.246;9.106;2023-06-14T12:18:59;29.10;79.40
19586;DHT22;9939;49.246;9.106;2023-06-14T12:21:26;29.10;81.20
19586;DHT22;9939;49.246;9.106;2023-06-14T12:23:55;30.80;78.20
19586;DHT22;9939;49.246;9.106;2023-06-14T12:26:22;32.80;74.70
19586;DHT22;9939;49.246;9.106;2023-06-14T12:28:51;34.80;69.90
19586;DHT22;9939;49.246;9.106;2023-06-14T12:31:18;33.10;71.10
19586;DHT22;9939;49.246;9.106;2023-06-14T12:33:46;33.70;72.00
19586;DHT22;9939;49.246;9.106;2023-06-14T12:36:15;34.70;70.60
19586;DHT22;9939;49.246;9.106;2023-06-14T12:38:43;32.00;72.70
19586;DHT22;9939;49.246;9.106;2023-06-14T12:41:10;30.00;77.20
19586;DHT22;9939;49.246;9.106;2023-06-14T12:43:38;29.00;77.50
19586;DHT22;9939;49.246;9.106;2023-06-14T12:46:04;28.80;78.90
19586;DHT22;9939;49.246;9.106;2023-06-14T12:48:32;28.40;78.60
19586;DHT22;9939;49.246;9.106;2023-06-14T12:50:58;28.80;78.90
19586;DHT22;9939;49.246;9.106;2023-06-14T12:53:25;29.80;78.50
19586;DHT22;9939;49.246;9.106;2023-06-14T12:55:52;31.80;77.10
19586;DHT22;9939;49.246;9.106;2023-06-14T12:58:19;34.00;72.90
19586;DHT22;9939;49.246;9.106;2023-06-14T13:00:47;34.90;70.00
19586;DHT22;9939;49.246;9.106;2023-06-14T13:03:14;33.50;71.00
19586;DHT22;9939;49.246;9.106;2023-06-14T13:05:41;32.30;72.10
19586;DHT22;9939;49.246;9.106;2023-06-14T13:08:09;30.00;77.40
19586;DHT22;9939;49.246;9.106;2023-06-14T13:10:36;29.20;78.70
19586;DHT22;9939;49.246;9.106;2023-06-14T13:13:04;28.40;79.70
19586;DHT22;9939;49.246;9.106;2023-06-14T13:15:31;28.00;80.80
19586;DHT22;9939;49.246;9.106;2023-06-14T13:17:58;28.40;81.50
19586;DHT22;9939;49.246;9.106;2023-06-14T13:20:25;28.80;80.90
19586;DHT22;9939;49.246;9.106;2023-06-14T13:22:51;28.60;80.80
19586;DHT22;9939;49.246;9.106;2023-06-14T13:25:18;28.60;81.70
19586;DHT22;9939;49.246;9.106;2023-06-14T13:27:46;28.90;80.50
19586;DHT22;9939;49.246;9.106;2023-06-14T13:30:13;29.90;79.00
19586;DHT22;9939;49.246;9.106;2023-06-14T13:32:41;30.40;79.20
19586;DHT22;9939;49.246;9.106;2023-06-14T13:35:08;31.00;78.40
19586;DHT22;9939;49.246;9.106;2023-06-14T13:37:35;32.60;75.40
19586;DHT22;9939;49.246;9.106;2023-06-14T13:40:02;31.10;75.20
19586;DHT22;9939;49.246;9.106;2023-06-14T13:42:29;33.40;75.20
19586;DHT22;9939;49.246;9.106;2023-06-14T13:44:58;35.30;71.60
19586;DHT22;9939;49.246;9.106;2023-06-14T13:47:25;35.20;69.40
19586;DHT22;9939;49.246;9.106;2023-06-14T13:49:52;35.60;69.00
19586;DHT22;9939;49.246;9.106;2023-06-14T13:52:19;33.90;71.40
19586;DHT22;9939;49.246;9.106;2023-06-14T13:54:46;31.90;72.90
19586;DHT22;9939;49.246;9.106;2023-06-14T13:57:15;30.70;74.80
19586;DHT22;9939;49.246;9.106;2023-06-14T13:59:42;29.40;77.90
19586;DHT22;9939;49.246;9.106;2023-06-14T14:02:11;29.00;79.50
19586;DHT22;9939;49.246;9.106;2023-06-14T14:04:38;28.80;79.40
19586;DHT22;9939;49.246;9.106;2023-06-14T14:07:06;28.70;79.50
19586;DHT22;9939;49.246;9.106;2023-06-14T14:09:34;28.50;80.00
19586;DHT22;9939;49.246;9.106;2023-06-14T14:12:04;29.00;79.00
19586;DHT22;9939;49.246;9.106;2023-06-14T14:14:32;29.60;78.40
19586;DHT22;9939;49.246;9.106;2023-06-14T14:16:58;29.20;77.20
19586;DHT22;9939;49.246;9.106;2023-06-14T14:19:25;28.90;78.80
19586;DHT22;9939;49.246;9.106;2023-06-14T14:21:52;28.80;79.90
19586;DHT22;9939;49.246;9.106;2023-06-14T14:24:20;29.30;78.40
19586;DHT22;9939;49.246;9.106;2023-06-14T14:26:47;31.30;74.00
19586;DHT22;9939;49.246;9.106;2023-06-14T14:29:16;32.80;72.00
19586;DHT22;9939;49.246;9.106;2023-06-14T14:31:43;34.90;70.90
19586;DHT22;9939;49.246;9.106;2023-06-14T14:34:11;35.60;68.30
19586;DHT22;9939;49.246;9.106;2023-06-14T14:36:37;35.70;68.40
19586;DHT22;9939;49.246;9.106;2023-06-14T14:39:09;36.10;66.80
19586;DHT22;9939;49.246;9.106;2023-06-14T14:41:36;36.70;66.80
19586;DHT22;9939;49.246;9.106;2023-06-14T14:44:08;35.60;68.30
19586;DHT22;9939;49.246;9.106;2023-06-14T14:46:35;36.70;67.80
19586;DHT22;9939;49.246;9.106;2023-06-14T14:49:02;36.00;66.90
19586;DHT22;9939;49.246;9.106;2023-06-14T14:51:29;33.70;69.70
19586;DHT22;9939;49.246;9.106;2023-06-14T14:53:56;32.00;72.20
19586;DHT22;9939;49.246;9.106;2023-06-14T14:56:23;30.30;74.60
19586;DHT22;9939;49.246;9.106;2023-06-14T14:58:50;29.60;76.30
19586;DHT22;9939;49.246;9.106;2023-06-14T15:01:18;29.40;78.10
19586;DHT22;9939;49.246;9.106;2023-06-14T15:03:45;29.60;77.60
19586;DHT22;9939;49.246;9.106;2023-06-14T15:06:15;30.30;75.10
19586;DHT22;9939;49.246;9.106;2023-06-14T15:08:44;32.20;72.90
19586;DHT22;9939;49.246;9.106;2023-06-14T15:11:11;33.30;71.60
19586;DHT22;9939;49.246;9.106;2023-06-14T15:13:38;35.30;69.00
19586;DHT22;9939;49.246;9.106;2023-06-14T15:16:05;34.50;68.90
19586;DHT22;9939;49.246;9.106;2023-06-14T15:18:32;35.00;67.70
19586;DHT22;9939;49.246;9.106;2023-06-14T15:20:59;35.40;65.50
19586;DHT22;9939;49.246;9.106;2023-06-14T15:23:26;35.60;66.40
19586;DHT22;9939;49.246;9.106;2023-06-14T15:25:53;35.10;66.50
19586;DHT22;9939;49.246;9.106;2023-06-14T15:28:20;35.40;67.80
19586;DHT22;9939;49.246;9.106;2023-06-14T15:30:48;35.10;66.60
19586;DHT22;9939;49.246;9.106;2023-06-14T15:33:15;35.40;67.20
19586;DHT22;9939;49.246;9.106;2023-06-14T15:35:42;36.50;66.20
19586;DHT22;9939;49.246;9.106;2023-06-14T15:38:08;35.80;65.70
19586;DHT22;9939;49.246;9.106;2023-06-14T15:40:35;38.10;64.50
19586;DHT22;9939;49.246;9.106;2023-06-14T15:43:02;38.30;63.20
19586;DHT22;9939;49.246;9.106;2023-06-14T15:45:30;37.60;63.30
19586;DHT22;9939;49.246;9.106;2023-06-14T15:47:57;36.20;63.80
19586;DHT22;9939;49.246;9.106;2023-06-14T15:50:25;36.60;65.10
19586;DHT22;9939;49.246;9.106;2023-06-14T15:52:52;36.20;65.80
19586;DHT22;9939;49.246;9.106;2023-06-14T15:55:19;34.30;67.70
19586;DHT22;9939;49.246;9.106;2023-06-14T15:57:46;31.70;71.70
19586;DHT22;9939;49.246;9.106;2023-06-14T16:00:13;29.90;74.50
19586;DHT22;9939;49.246;9.106;2023-06-14T16:02:41;29.20;77.40
19586;DHT22;9939;49.246;9.106;2023-06-14T16:05:08;28.10;78.70
19586;DHT22;9939;49.246;9.106;2023-06-14T16:07:34;29.00;78.00
19586;DHT22;9939;49.246;9.106;2023-06-14T16:10:02;28.70;77.50
19586;DHT22;9939;49.246;9.106;2023-06-14T16:12:29;27.80;78.70